Argillite, Kentucky
Current Conditions -  °F | °C
As of 5:55 PM on Friday 28 Nov 2014 (Local Time) from KDWU Reporting Station
Clear Clear  
Wind Chill: -1°   Ceiling: Unl
Heat Index:   Visibility: 10mi
Dew Point: -9°   Wind: 5mph
Humidity: 48%   Direction: 140°SE
Pressure: 30.24"   Gusts: NA
Location:  38.51°N, 82.87°W
Report Text: KDWU 282255Z AUTO 14004KT 10SM CLR 01/M09 A3024 RMK AO1
Loading
Personal Weather Stations






























Interactive Weather Map New forecast layout! Learn more

10-Day Weather Forecast

Advertisements
Track Severe Weather on mobile